createdAt,value
2022-08-12T00:00:26.589Z,2.77
2022-08-12T00:06:01.830Z,3.00
2022-08-12T00:11:27.204Z,2.37
2022-08-12T00:16:48.616Z,2.60
2022-08-12T00:22:09.373Z,2.43
2022-08-12T00:27:43.622Z,2.70
2022-08-12T00:33:05.377Z,2.77
2022-08-12T00:38:26.687Z,2.20
2022-08-12T00:43:29.632Z,2.50
2022-08-12T00:48:31.763Z,2.37
2022-08-12T00:53:34.743Z,2.10
2022-08-12T00:58:37.713Z,2.33
2022-08-12T01:03:59.486Z,2.40
2022-08-12T01:09:20.840Z,2.70
2022-08-12T01:14:25.003Z,2.60
2022-08-12T01:19:27.311Z,2.73
2022-08-12T01:24:48.388Z,2.53
2022-08-12T01:29:53.010Z,2.73
2022-08-12T01:35:07.010Z,2.53
2022-08-12T01:40:31.647Z,2.20
2022-08-12T01:45:43.010Z,2.67
2022-08-12T01:51:05.413Z,2.97
2022-08-12T01:56:10.927Z,2.53
2022-08-12T02:01:13.697Z,2.83
2022-08-12T02:06:39.708Z,2.50
2022-08-12T02:12:06.046Z,2.83
2022-08-12T02:17:19.871Z,2.80
2022-08-12T02:22:39.365Z,2.60
2022-08-12T02:27:42.930Z,2.50
2022-08-12T02:32:45.884Z,2.87
2022-08-12T02:37:49.249Z,3.13
2022-08-12T02:42:54.072Z,2.80
2022-08-12T02:48:01.116Z,2.63
2022-08-12T02:53:04.932Z,2.60
2022-08-12T02:58:12.709Z,3.10
2022-08-12T03:03:21.487Z,3.20
2022-08-12T03:08:32.400Z,3.03
2022-08-12T03:13:38.961Z,2.97
2022-08-12T03:18:45.698Z,2.57
2022-08-12T03:23:48.878Z,2.40
2022-08-12T03:28:52.055Z,2.50
2022-08-12T03:34:02.091Z,2.80
2022-08-12T03:39:16.754Z,3.07
2022-08-12T03:44:40.688Z,3.37
2022-08-12T03:50:01.956Z,2.97
2022-08-12T03:55:22.674Z,3.03
2022-08-12T04:00:26.150Z,3.20
2022-08-12T04:05:56.069Z,3.00
2022-08-12T04:11:11.648Z,3.00
2022-08-12T04:16:14.484Z,3.20
2022-08-12T04:21:17.758Z,3.20
2022-08-12T04:26:20.150Z,3.60
2022-08-12T04:31:37.729Z,3.50
2022-08-12T04:36:42.264Z,3.20
2022-08-12T04:41:54.406Z,3.30
2022-08-12T04:47:00.702Z,3.10
2022-08-12T04:52:03.238Z,3.67
2022-08-12T04:57:06.004Z,3.20
2022-08-12T05:02:09.537Z,3.93
2022-08-12T05:07:19.446Z,3.60
2022-08-12T05:12:21.329Z,3.67
2022-08-12T05:17:27.260Z,3.17
2022-08-12T05:22:30.949Z,3.40
2022-08-12T05:27:40.632Z,2.80
2022-08-12T05:33:06.319Z,3.27
2022-08-12T05:38:27.969Z,3.00
2022-08-12T05:43:30.319Z,3.70
2022-08-12T05:48:32.486Z,3.10
2022-08-12T05:53:34.428Z,2.80
2022-08-12T05:58:36.246Z,3.30
2022-08-12T06:03:38.104Z,3.00
2022-08-12T06:08:48.541Z,3.13
2022-08-12T06:13:54.291Z,2.90
2022-08-12T06:18:56.582Z,2.90
2022-08-12T06:23:58.501Z,3.30
2022-08-12T06:29:01.218Z,2.40
2022-08-12T06:35:24.027Z,3.00
2022-08-12T06:39:25.475Z,2.90
2022-08-12T06:44:27.571Z,3.20
2022-08-12T06:49:34.733Z,2.83
2022-08-12T06:54:37.025Z,2.50
2022-08-12T06:59:40.925Z,2.93
2022-08-12T07:04:43.343Z,2.70
2022-08-12T07:10:06.907Z,2.90
2022-08-12T07:15:07.473Z,2.80
2022-08-12T07:20:29.968Z,2.73
2022-08-12T07:25:40.275Z,3.70
2022-08-12T07:30:45.003Z,3.50
2022-08-12T07:35:48.261Z,2.90
2022-08-12T07:40:53.730Z,4.10
2022-08-12T07:45:56.411Z,3.10
2022-08-12T07:50:58.644Z,2.57
2022-08-12T07:56:00.861Z,2.70
2022-08-12T08:01:03.189Z,2.40
2022-08-12T08:06:19.897Z,2.93
2022-08-12T08:11:41.412Z,2.67
2022-08-12T08:16:44.313Z,2.57
2022-08-12T08:21:46.664Z,2.30
2022-08-12T08:26:50.508Z,2.50
2022-08-12T08:31:58.770Z,2.80
2022-08-12T08:37:00.681Z,2.80
2022-08-12T08:42:26.490Z,2.33
2022-08-12T08:47:28.356Z,2.40
2022-08-12T08:52:39.836Z,2.23
2022-08-12T08:57:45.555Z,2.13
2022-08-12T09:02:58.756Z,2.33
2022-08-12T09:08:13.240Z,2.00
2022-08-12T09:18:56.297Z,2.07
2022-08-12T09:24:07.530Z,2.37
2022-08-12T09:29:12.366Z,2.20
2022-08-12T09:34:26.257Z,2.10
2022-08-12T09:40:02.372Z,2.30
2022-08-12T09:45:19.180Z,2.07
2022-08-12T09:50:25.134Z,2.17
2022-08-12T09:56:05.777Z,2.13
2022-08-12T10:00:52.805Z,1.90
2022-08-12T10:06:26.776Z,1.90
2022-08-12T10:12:10.100Z,2.30
2022-08-12T10:16:59.103Z,1.93
2022-08-12T10:22:01.567Z,1.83
2022-08-12T10:27:23.265Z,2.20
2022-08-12T10:32:43.862Z,2.10
2022-08-12T10:38:38.714Z,2.03
2022-08-12T10:43:29.122Z,1.97
2022-08-12T10:48:58.867Z,1.70
2022-08-12T10:54:13.141Z,2.00
2022-08-12T10:59:15.983Z,1.70
2022-08-12T11:04:35.528Z,1.90
2022-08-12T11:09:59.730Z,2.20
2022-08-12T11:15:18.581Z,2.20
2022-08-12T11:20:24.348Z,1.77
2022-08-12T11:25:55.676Z,1.40
2022-08-12T11:30:54.928Z,1.57
2022-08-12T11:36:12.429Z,1.93
2022-08-12T11:41:16.944Z,1.67
2022-08-12T11:46:30.621Z,1.70
2022-08-12T11:51:38.790Z,1.77
2022-08-12T11:56:42.911Z,1.90
2022-08-12T12:02:01.964Z,1.60
2022-08-12T12:07:07.065Z,1.50
2022-08-12T12:12:10.022Z,1.60
2022-08-12T12:17:13.443Z,2.10
2022-08-12T12:22:15.631Z,1.50
2022-08-12T12:27:39.274Z,1.60
2022-08-12T12:32:53.380Z,1.73
2022-08-12T12:38:05.469Z,1.50
2022-08-12T12:43:14.786Z,1.47
2022-08-12T12:48:18.257Z,1.60
2022-08-12T12:54:05.238Z,1.70
2022-08-12T12:58:44.997Z,1.53
2022-08-12T13:03:49.398Z,1.63
2022-08-12T13:08:54.769Z,1.70
2022-08-12T13:14:10.560Z,1.80
2022-08-12T13:19:15.249Z,1.67
2022-08-12T13:24:17.540Z,2.63
2022-08-12T13:29:21.412Z,1.50
2022-08-12T13:34:32.170Z,1.60
2022-08-12T13:39:35.986Z,1.43
2022-08-12T13:44:38.297Z,1.40
2022-08-12T13:49:55.128Z,1.83
2022-08-12T13:54:58.208Z,1.80
2022-08-12T14:00:01.827Z,1.53
2022-08-12T14:05:37.455Z,1.60
2022-08-12T14:10:51.467Z,1.60
2022-08-12T14:15:55.891Z,1.50
2022-08-12T14:21:04.392Z,1.87
2022-08-12T14:26:11.761Z,1.53
2022-08-12T14:31:18.205Z,1.47
2022-08-12T14:36:24.883Z,1.50
2022-08-12T14:41:36.459Z,1.63
2022-08-12T14:46:55.681Z,1.80
2022-08-12T14:52:43.304Z,1.20
2022-08-12T14:57:23.677Z,1.40
2022-08-12T15:02:28.548Z,1.70
2022-08-12T15:07:33.888Z,1.30
2022-08-12T15:12:53.206Z,1.50
2022-08-12T15:18:02.426Z,1.60
2022-08-12T15:23:17.860Z,1.70
2022-08-12T15:28:25.369Z,1.57
2022-08-12T15:33:44.822Z,1.37
2022-08-12T15:38:52.739Z,1.90
2022-08-12T15:44:20.028Z,1.73
2022-08-12T15:49:19.136Z,1.67
2022-08-12T15:54:34.089Z,1.53
2022-08-12T16:00:00.018Z,1.43
2022-08-12T16:05:01.291Z,1.40
2022-08-12T16:10:06.615Z,1.60
2022-08-12T16:15:11.842Z,1.60
2022-08-12T16:20:22.948Z,1.60
2022-08-12T16:26:02.839Z,1.53
2022-08-12T16:30:57.469Z,1.50
2022-08-12T16:36:01.707Z,1.40
2022-08-12T16:41:05.094Z,1.50
2022-08-12T16:46:23.793Z,1.43
2022-08-12T16:51:37.441Z,1.50
2022-08-12T16:56:55.268Z,1.70
2022-08-12T17:02:00.401Z,1.53
2022-08-12T17:07:02.734Z,1.50
2022-08-12T17:12:05.585Z,1.43
2022-08-12T17:17:26.178Z,1.50
2022-08-12T17:22:32.876Z,1.40
2022-08-12T17:27:46.293Z,1.90
2022-08-12T17:32:53.336Z,3.00
2022-08-12T17:38:13.690Z,1.50
2022-08-12T17:43:56.594Z,1.40
2022-08-12T17:48:54.574Z,1.33
2022-08-12T17:54:11.416Z,1.30
2022-08-12T17:59:47.275Z,1.53
2022-08-12T18:04:52.967Z,1.70
2022-08-12T18:10:06.135Z,1.53
2022-08-12T18:16:03.582Z,1.27
2022-08-12T18:20:41.631Z,1.00
2022-08-12T18:26:14.111Z,1.67
2022-08-12T18:31:23.269Z,1.53
2022-08-12T18:36:27.980Z,1.70
2022-08-12T18:41:34.151Z,1.70
2022-08-12T18:46:56.055Z,1.47
2022-08-12T18:52:02.170Z,1.47
2022-08-12T18:57:19.564Z,1.23
2022-08-12T19:02:39.871Z,1.27
2022-08-12T19:08:00.028Z,1.40
2022-08-12T19:13:24.519Z,1.47
2022-08-12T19:18:29.259Z,1.33
2022-08-12T19:23:35.031Z,1.73
2022-08-12T19:28:38.428Z,1.50
2022-08-12T19:33:46.340Z,1.23
2022-08-12T19:38:59.730Z,1.50
2022-08-12T19:44:16.800Z,1.70
2022-08-12T19:49:22.404Z,1.37
2022-08-12T19:54:30.232Z,1.60
2022-08-12T19:59:43.365Z,1.30
2022-08-12T20:06:05.994Z,1.60
2022-08-12T20:10:35.521Z,1.60
2022-08-12T20:15:44.980Z,1.50
2022-08-12T20:20:47.739Z,1.50
2022-08-12T20:25:52.990Z,1.70
2022-08-12T20:31:06.177Z,1.30
2022-08-12T20:36:40.323Z,1.70
2022-08-12T20:41:33.332Z,1.50
2022-08-12T20:46:35.448Z,1.57
2022-08-12T20:51:40.511Z,1.70
2022-08-12T20:56:57.981Z,1.70
2022-08-12T21:02:04.967Z,1.43
2022-08-12T21:07:10.449Z,1.50
2022-08-12T21:12:30.912Z,1.20
2022-08-12T21:18:08.245Z,1.40
2022-08-12T21:23:05.718Z,1.50
2022-08-12T21:28:08.090Z,1.40
2022-08-12T21:33:14.841Z,1.53
2022-08-12T21:38:18.883Z,1.63
2022-08-12T21:43:21.161Z,1.20
2022-08-12T21:48:25.332Z,1.73
2022-08-12T21:53:31.709Z,1.37
2022-08-12T21:58:50.024Z,1.37
2022-08-12T22:04:12.544Z,1.70
2022-08-12T22:09:16.394Z,1.50
2022-08-12T22:14:23.534Z,1.50
2022-08-12T22:19:27.010Z,1.30
2022-08-12T22:24:30.818Z,1.50
2022-08-12T22:29:51.928Z,1.23
2022-08-12T22:35:22.322Z,1.50
2022-08-12T22:40:34.638Z,1.70
2022-08-12T22:45:56.615Z,1.50
2022-08-12T22:51:01.073Z,1.80
2022-08-12T22:56:06.191Z,1.90
2022-08-12T23:01:11.206Z,1.60
2022-08-12T23:06:13.636Z,1.90
2022-08-12T23:11:17.895Z,1.50
2022-08-12T23:16:30.929Z,1.57
2022-08-12T23:22:04.326Z,1.67
2022-08-12T23:27:16.881Z,1.50
2022-08-12T23:32:36.094Z,1.40
2022-08-12T23:37:47.374Z,1.53
2022-08-12T23:42:56.920Z,1.60
2022-08-12T23:48:00.460Z,2.10
2022-08-12T23:53:22.354Z,1.80
2022-08-12T23:58:28.141Z,1.80
